Time;durP1;ratioP1;P1;durP2;ratioP2;P2;SDS_P1;SDS_P2;PMS_P1;PMS_P2;Temp;Humidity;BMP_temperature;BMP_pressure;BME280_temperature;BME280_humidity;BME280_pressure;Samples;Min_cycle;Max_cycle;Signal;HPM_P1;HPM_P2
2022/08/02 00:01:26;;;;;;;5.28;1.50;;;;;;;19.16;64.28;101960.94;5005765;28;20041;-62
2022/08/02 00:03:51;;;;;;;4.65;1.52;;;;;;;19.17;64.23;101959.13;5006750;28;20026;-62
2022/08/02 00:06:17;;;;;;;6.07;1.73;;;;;;;19.22;63.71;101953.53;5004651;28;20037;-62
2022/08/02 00:08:42;;;;;;;3.55;1.20;;;;;;;19.19;63.38;101944.75;4989564;28;20087;-61
2022/08/02 00:11:07;;;;;;;5.22;1.40;;;;;;;19.22;62.68;101945.50;5006200;28;20532;-66
2022/08/02 00:13:33;;;;;;;4.60;1.20;;;;;;;19.27;63.39;101940.81;4989771;28;20488;-63
2022/08/02 00:15:58;;;;;;;3.10;0.80;;;;;;;19.33;62.18;101943.16;5007046;28;20032;-61
2022/08/02 00:18:24;;;;;;;4.68;1.27;;;;;;;19.37;61.18;101936.69;5006293;28;20037;-63
2022/08/02 00:20:49;;;;;;;3.55;1.10;;;;;;;19.40;61.23;101938.31;5006278;28;20030;-62
2022/08/02 00:23:14;;;;;;;2.75;1.13;;;;;;;19.40;58.67;101944.53;5006756;28;20069;-61
2022/08/02 00:25:40;;;;;;;3.50;1.20;;;;;;;19.42;58.47;101936.44;4988971;28;20026;-61
2022/08/02 00:28:05;;;;;;;3.53;0.90;;;;;;;19.40;58.13;101932.97;5006620;28;20053;-62
2022/08/02 00:30:30;;;;;;;5.00;1.20;;;;;;;19.35;56.70;101924.38;5006670;28;20154;-62
2022/08/02 00:32:56;;;;;;;2.05;0.98;;;;;;;19.25;55.98;101932.00;5005864;28;20029;-61
2022/08/02 00:35:21;;;;;;;2.85;1.25;;;;;;;19.12;55.94;101930.00;5006453;28;20036;-61
2022/08/02 00:37:46;;;;;;;2.08;0.80;;;;;;;19.09;54.83;101923.94;5005652;28;20018;-63
2022/08/02 00:40:12;;;;;;;3.17;1.02;;;;;;;19.08;55.37;101928.41;5006702;28;20040;-61
2022/08/02 00:42:38;;;;;;;1.95;1.20;;;;;;;19.10;55.69;101923.88;5006696;28;20026;-61
2022/08/02 00:45:04;;;;;;;2.78;1.20;;;;;;;19.12;55.29;101923.78;5006854;28;20030;-62
2022/08/02 00:47:30;;;;;;;2.70;1.05;;;;;;;19.08;55.90;101925.75;5005698;28;20026;-63
2022/08/02 00:49:55;;;;;;;1.85;1.25;;;;;;;19.09;55.95;101927.50;4972406;28;20029;-63
2022/08/02 00:52:23;;;;;;;2.13;1.30;;;;;;;19.10;56.81;101918.53;5004726;28;20022;-62
2022/08/02 00:54:48;;;;;;;3.72;1.13;;;;;;;19.18;57.13;101910.94;5004964;28;20469;-62
2022/08/02 00:57:13;;;;;;;1.27;0.90;;;;;;;19.27;55.50;101916.75;5006027;28;20026;-62
2022/08/02 00:59:40;;;;;;;2.47;1.08;;;;;;;19.24;55.61;101906.25;5006308;28;20183;-62
2022/08/02 01:02:06;;;;;;;3.80;1.10;;;;;;;19.25;55.68;101913.28;5006814;28;20081;-61
2022/08/02 01:04:31;;;;;;;3.45;1.15;;;;;;;19.24;55.41;101903.56;5005907;28;20381;-62
2022/08/02 01:06:58;;;;;;;4.13;1.05;;;;;;;19.24;55.91;101904.44;5005147;28;20049;-62
2022/08/02 01:09:23;;;;;;;4.88;1.13;;;;;;;19.22;55.73;101903.66;5004561;28;20046;-61
2022/08/02 01:11:49;;;;;;;6.43;1.50;;;;;;;19.10;55.51;101905.16;5005047;28;20058;-62
2022/08/02 01:14:14;;;;;;;2.63;1.40;;;;;;;18.97;56.82;101906.72;5005009;28;20056;-62
2022/08/02 01:17:02;;;;;;;1.75;0.90;;;;;;;18.98;56.90;101908.44;5004585;28;20103;-62
2022/08/02 01:19:56;;;;;;;2.35;1.35;;;;;;;19.10;56.83;101904.28;5005150;28;20437;-61
2022/08/02 01:22:39;;;;;;;4.97;1.40;;;;;;;19.13;56.99;101904.13;5004924;28;20129;-62
2022/08/02 01:25:04;;;;;;;4.07;1.30;;;;;;;19.21;56.13;101893.03;5006023;28;20030;-62
2022/08/02 01:27:46;;;;;;;3.75;1.17;;;;;;;19.28;55.89;101894.44;5005485;28;20033;-61
2022/08/02 01:30:12;;;;;;;5.95;1.52;;;;;;;19.20;56.49;101892.16;5004772;28;20472;-62
2022/08/02 01:32:42;;;;;;;5.90;1.15;;;;;;;19.12;56.90;101897.94;4988116;28;20464;-63
2022/08/02 01:35:16;;;;;;;4.65;1.35;;;;;;;19.02;56.87;101908.19;4987115;28;20117;-62
2022/08/02 01:37:49;;;;;;;9.10;1.90;;;;;;;18.93;57.83;101906.88;4986388;28;20030;-61
2022/08/02 01:40:21;;;;;;;4.72;1.52;;;;;;;18.92;57.91;101906.97;5005190;28;20037;-62
2022/08/02 01:42:49;;;;;;;5.45;1.73;;;;;;;18.88;58.57;101906.28;4988199;28;20022;-61
2022/08/02 01:45:15;;;;;;;3.42;1.50;;;;;;;18.88;58.96;101911.63;4987720;28;20024;-62
2022/08/02 01:47:41;;;;;;;3.53;1.50;;;;;;;18.78;58.56;101905.03;4987927;28;20676;-62
2022/08/02 01:50:11;;;;;;;5.45;1.58;;;;;;;18.75;58.18;101902.53;4988170;28;20034;-63
2022/08/02 01:52:38;;;;;;;5.32;1.23;;;;;;;18.68;58.61;101894.81;4986469;28;20075;-62
2022/08/02 01:55:07;;;;;;;2.00;1.23;;;;;;;18.65;59.40;101904.78;5005170;28;20026;-63
2022/08/02 01:57:36;;;;;;;5.07;1.70;;;;;;;18.65;59.07;101900.31;5004789;28;20033;-62
2022/08/02 02:00:04;;;;;;;3.75;1.23;;;;;;;18.61;59.85;101893.41;5004830;28;20022;-62
2022/08/02 02:02:29;;;;;;;2.90;1.60;;;;;;;18.54;59.97;101891.97;5005000;28;20030;-62
2022/08/02 02:04:56;;;;;;;3.78;1.45;;;;;;;18.46;59.63;101894.19;4986505;28;20029;-62
2022/08/02 02:07:22;;;;;;;3.63;1.65;;;;;;;18.34;60.39;101896.53;4986641;28;20697;-62
2022/08/02 02:09:47;;;;;;;3.35;1.23;;;;;;;18.28;60.95;101894.19;5005228;28;20129;-62
2022/08/02 02:12:14;;;;;;;6.03;1.50;;;;;;;18.20;62.06;101899.88;5003900;28;20084;-62
2022/08/02 02:14:41;;;;;;;4.93;1.70;;;;;;;18.09;62.72;101888.88;5005278;28;20038;-61
2022/08/02 02:17:07;;;;;;;5.47;1.52;;;;;;;18.02;62.29;101889.16;5005202;28;20025;-63
2022/08/02 02:19:35;;;;;;;3.17;1.48;;;;;;;18.03;63.05;101866.03;5005106;28;20665;-61
2022/08/02 02:22:00;;;;;;;5.00;1.95;;;;;;;18.02;62.98;101880.28;4986898;28;20057;-62
2022/08/02 02:24:25;;;;;;;4.65;1.70;;;;;;;17.97;63.62;101882.34;4986793;28;20433;-61
2022/08/02 02:26:51;;;;;;;4.90;1.63;;;;;;;18.02;63.25;101890.97;5005034;28;20018;-61
2022/08/02 02:29:17;;;;;;;4.88;1.65;;;;;;;18.09;63.47;101879.03;5004292;28;20032;-62
2022/08/02 02:31:43;;;;;;;4.43;1.63;;;;;;;18.08;63.39;101885.31;5003255;28;20293;-62
2022/08/02 02:34:17;;;;;;;4.90;1.80;;;;;;;18.08;63.52;101888.00;4985390;28;20041;-63
2022/08/02 02:36:48;;;;;;;4.15;1.77;;;;;;;18.15;63.09;101883.28;5003158;28;20069;-61
2022/08/02 02:39:14;;;;;;;4.90;1.70;;;;;;;18.10;63.29;101877.25;5002676;28;20128;-61
2022/08/02 02:41:41;;;;;;;7.00;1.70;;;;;;;18.05;63.60;101870.34;5004379;28;20025;-61
2022/08/02 02:44:10;;;;;;;4.80;1.73;;;;;;;18.08;63.25;101871.13;4983906;28;21968;-61
2022/08/02 02:46:35;;;;;;;5.57;1.97;;;;;;;18.00;62.82;101871.53;5004273;28;20458;-63
2022/08/02 02:49:01;;;;;;;6.97;1.60;;;;;;;18.01;62.41;101878.56;5003125;28;20334;-61
2022/08/02 02:51:27;;;;;;;5.00;1.90;;;;;;;18.01;62.00;101879.44;4985869;28;20042;-61
2022/08/02 02:53:53;;;;;;;5.72;2.00;;;;;;;17.89;63.20;101878.25;5003983;28;20022;-61
2022/08/02 02:56:18;;;;;;;2.03;1.52;;;;;;;17.92;62.94;101874.56;4986419;28;20492;-61
2022/08/02 02:58:44;;;;;;;5.32;1.98;;;;;;;17.85;63.36;101867.78;4981093;28;20030;-62
2022/08/02 03:01:29;;;;;;;5.82;1.85;;;;;;;17.83;63.45;101869.66;5004450;28;20594;-62
2022/08/02 03:03:56;;;;;;;2.85;1.45;;;;;;;17.88;63.27;101857.00;4987544;28;20030;-62
2022/08/02 03:06:22;;;;;;;4.18;1.75;;;;;;;17.86;63.07;101857.06;5002876;28;20057;-61
2022/08/02 03:08:47;;;;;;;4.03;1.90;;;;;;;17.90;62.47;101861.28;5003459;28;20057;-62
2022/08/02 03:11:12;;;;;;;6.85;1.88;;;;;;;17.89;62.01;101864.91;4985675;28;20101;-61
2022/08/02 03:13:39;;;;;;;3.88;1.65;;;;;;;17.77;62.35;101858.38;4987122;28;20454;-64
2022/08/02 03:16:04;;;;;;;4.78;1.70;;;;;;;17.78;63.16;101861.88;4987000;28;20080;-61
2022/08/02 03:18:34;;;;;;;6.05;1.83;;;;;;;17.83;62.89;101851.00;5007934;28;20042;-62
2022/08/02 03:21:08;;;;;;;6.25;1.90;;;;;;;17.78;63.33;101852.09;5007262;28;20030;-62
2022/08/02 03:23:33;;;;;;;5.75;1.60;;;;;;;17.76;63.37;101843.28;5008457;28;20022;-62
2022/08/02 03:25:59;;;;;;;3.33;1.90;;;;;;;17.76;63.43;101839.78;5007904;28;20108;-61
2022/08/02 03:28:25;;;;;;;7.15;1.60;;;;;;;17.80;63.39;101834.25;5007003;28;20050;-61
2022/08/02 03:30:50;;;;;;;3.95;1.60;;;;;;;17.89;63.18;101821.38;5007914;28;20034;-62
2022/08/02 03:33:17;;;;;;;7.90;1.90;;;;;;;17.89;62.88;101827.59;5006706;28;20044;-60
2022/08/02 03:35:43;;;;;;;4.53;2.05;;;;;;;17.93;62.77;101829.16;5007394;28;20087;-63
2022/08/02 03:38:11;;;;;;;3.42;1.65;;;;;;;17.93;62.31;101834.50;4990067;28;20105;-62
2022/08/02 03:40:37;;;;;;;4.00;1.60;;;;;;;17.89;62.13;101832.91;5007985;28;20064;-61
2022/08/02 03:43:03;;;;;;;8.43;1.83;;;;;;;17.87;62.60;101841.91;4990643;28;20014;-62
2022/08/02 03:45:28;;;;;;;5.10;1.65;;;;;;;17.87;61.91;101844.56;4989598;28;20037;-61
2022/08/02 03:47:54;;;;;;;2.20;1.50;;;;;;;17.78;61.94;101840.56;5006847;28;20450;-61
2022/08/02 03:50:21;;;;;;;4.15;1.40;;;;;;;17.75;61.90;101838.03;5001039;28;20038;-62
2022/08/02 03:52:47;;;;;;;6.43;1.85;;;;;;;17.76;61.53;101826.47;5003129;28;20034;-61
2022/08/02 03:55:12;;;;;;;2.75;1.67;;;;;;;17.78;62.35;101819.22;4969346;28;20109;-61
2022/08/02 03:57:39;;;;;;;3.65;1.42;;;;;;;17.75;61.78;101814.06;4987589;28;20065;-63
2022/08/02 04:00:06;;;;;;;3.83;1.73;;;;;;;17.73;62.28;101818.63;4992231;28;20034;-61
2022/08/02 04:02:32;;;;;;;4.93;1.65;;;;;;;17.68;62.81;101811.72;5007278;28;20029;-62
2022/08/02 04:04:57;;;;;;;2.67;1.45;;;;;;;17.61;62.63;101807.59;5007318;28;20049;-62
2022/08/02 04:07:22;;;;;;;3.88;1.55;;;;;;;17.63;62.91;101805.72;5006209;28;20401;-60
2022/08/02 04:09:48;;;;;;;6.97;2.22;;;;;;;17.73;63.54;101805.28;5002888;28;20046;-61
2022/08/02 04:12:13;;;;;;;3.30;1.80;;;;;;;17.72;62.86;101796.41;5006529;28;20104;-62
2022/08/02 04:14:38;;;;;;;4.13;1.58;;;;;;;17.64;62.71;101806.59;5006359;28;20060;-62
2022/08/02 04:17:08;;;;;;;9.38;2.17;;;;;;;17.59;62.98;101813.94;4989104;28;20900;-63
2022/08/02 04:19:42;;;;;;;5.35;1.60;;;;;;;17.58;63.21;101818.41;5006865;28;20075;-64
2022/08/02 04:22:12;;;;;;;3.78;1.88;;;;;;;17.51;63.22;101816.97;5006231;28;20365;-64
2022/08/02 04:24:40;;;;;;;3.65;2.10;;;;;;;17.41;64.04;101817.44;4988901;28;20038;-62
2022/08/02 04:27:07;;;;;;;4.18;1.70;;;;;;;17.39;64.18;101819.28;4988949;28;20053;-63
2022/08/02 04:29:34;;;;;;;9.57;1.90;;;;;;;17.32;64.41;101820.53;4988399;28;20176;-62
2022/08/02 04:31:59;;;;;;;5.32;1.85;;;;;;;17.32;65.23;101816.97;5006171;28;20022;-63
2022/08/02 04:34:24;;;;;;;2.25;1.48;;;;;;;17.34;65.03;101821.28;5005956;28;20084;-62
2022/08/02 04:36:50;;;;;;;5.25;1.70;;;;;;;17.30;64.82;101825.03;4988284;28;20540;-61
2022/08/02 04:39:15;;;;;;;5.03;1.83;;;;;;;17.29;64.71;101823.31;4988134;28;20449;-62
2022/08/02 04:41:43;;;;;;;7.82;1.95;;;;;;;17.32;65.08;101820.53;5006318;28;20077;-62
2022/08/02 04:44:09;;;;;;;5.50;1.70;;;;;;;17.39;65.25;101819.28;5006115;28;20101;-63
2022/08/02 04:46:38;;;;;;;4.15;1.75;;;;;;;17.47;64.96;101820.72;5005952;28;20109;-61
2022/08/02 04:49:03;;;;;;;3.70;1.40;;;;;;;17.43;64.71;101812.88;5006574;28;20057;-62
2022/08/02 04:51:29;;;;;;;4.38;1.73;;;;;;;17.51;64.93;101811.63;5005013;28;20038;-63
2022/08/02 04:53:54;;;;;;;5.78;2.10;;;;;;;17.59;64.84;101808.59;5005625;28;20049;-61
2022/08/02 04:56:19;;;;;;;5.10;1.73;;;;;;;17.62;64.90;101812.00;5005355;28;20384;-61
2022/08/02 04:58:45;;;;;;;3.88;1.90;;;;;;;17.59;64.76;101809.47;5006072;28;20065;-62
2022/08/02 05:01:10;;;;;;;8.15;2.08;;;;;;;17.63;64.72;101811.06;5005441;28;20034;-61
2022/08/02 05:03:35;;;;;;;7.50;1.80;;;;;;;17.63;65.04;101811.06;5005771;28;20018;-62
2022/08/02 05:06:01;;;;;;;4.13;1.52;;;;;;;17.68;64.89;101813.50;5004168;28;20026;-62
2022/08/02 05:08:26;;;;;;;6.13;1.98;;;;;;;17.71;64.42;101802.69;5005001;28;20508;-62
2022/08/02 05:10:52;;;;;;;4.53;2.20;;;;;;;17.75;64.12;101811.38;5005254;28;20514;-63
2022/08/02 05:13:17;;;;;;;6.93;1.85;;;;;;;17.84;63.97;101813.59;5005044;28;20528;-62
2022/08/02 05:15:42;;;;;;;4.47;2.13;;;;;;;17.83;64.59;101816.34;5004324;28;20026;-62
2022/08/02 05:18:08;;;;;;;3.28;1.98;;;;;;;17.76;64.71;101827.31;5005285;28;20026;-62
2022/08/02 05:20:33;;;;;;;5.80;1.85;;;;;;;17.83;64.54;101821.69;5004701;28;20026;-63
2022/08/02 05:22:59;;;;;;;3.65;2.00;;;;;;;17.94;65.13;101817.53;5005632;28;20026;-61
2022/08/02 05:25:24;;;;;;;3.38;1.80;;;;;;;18.11;64.88;101815.88;5005457;28;20354;-61
2022/08/02 05:27:49;;;;;;;4.50;1.70;;;;;;;18.23;64.63;101802.84;5005400;28;20049;-62
2022/08/02 05:30:15;;;;;;;4.10;1.90;;;;;;;18.29;64.48;101807.88;4988162;28;20029;-62
2022/08/02 05:32:49;;;;;;;3.25;1.80;;;;;;;18.48;63.44;101806.94;5005962;28;20033;-62
2022/08/02 05:35:19;;;;;;;5.78;1.90;;;;;;;18.57;63.17;101811.75;5004959;28;20026;-61
2022/08/02 05:37:46;;;;;;;6.05;2.20;;;;;;;18.52;62.47;101820.03;5003651;28;20428;-62
2022/08/02 05:40:11;;;;;;;6.90;2.15;;;;;;;18.55;62.50;101803.84;5004806;28;20472;-62
2022/08/02 05:42:36;;;;;;;7.82;2.15;;;;;;;18.56;63.75;101805.59;5004301;28;20030;-62
2022/08/02 05:45:03;;;;;;;6.05;2.13;;;;;;;18.70;63.02;101795.97;5004957;28;20052;-62
2022/08/02 05:47:28;;;;;;;3.63;1.60;;;;;;;18.84;62.89;101797.03;4986991;28;20026;-62
2022/08/02 05:49:53;;;;;;;5.13;1.83;;;;;;;18.92;61.60;101795.69;4985120;28;20088;-64
2022/08/02 05:52:20;;;;;;;5.72;2.33;;;;;;;18.88;62.22;101794.13;4985058;28;20500;-63
2022/08/02 05:54:54;;;;;;;5.70;2.40;;;;;;;18.97;62.41;101794.56;4985850;28;20065;-63
2022/08/02 05:57:25;;;;;;;6.95;2.30;;;;;;;18.98;61.41;101801.63;4985673;28;20629;-62
2022/08/02 06:00:09;;;;;;;2.80;2.15;;;;;;;19.08;61.09;101794.88;5002669;28;20701;-61
2022/08/02 06:03:00;;;;;;;4.78;2.05;;;;;;;19.19;60.61;101800.50;5004626;28;20034;-61
2022/08/02 06:05:28;;;;;;;7.43;2.72;;;;;;;19.29;60.46;101802.63;5003184;28;20030;-63
2022/08/02 06:07:54;;;;;;;5.22;2.42;;;;;;;19.43;60.92;101799.19;4986806;28;20105;-63
2022/08/02 06:10:21;;;;;;;4.38;2.42;;;;;;;19.58;60.29;101789.44;5004347;28;20054;-62
2022/08/02 06:12:56;;;;;;;5.95;2.50;;;;;;;19.72;59.75;101793.13;4999215;28;20034;-62
2022/08/02 06:15:21;;;;;;;5.80;2.50;;;;;;;19.79;59.71;101791.81;4972735;28;20104;-62
2022/08/02 06:17:46;;;;;;;7.53;2.80;;;;;;;19.75;59.91;101787.63;4995235;28;20483;-63
2022/08/02 06:20:13;;;;;;;7.30;3.00;;;;;;;19.91;60.06;101798.28;4999192;28;20499;-63
2022/08/02 06:22:42;;;;;;;6.95;3.08;;;;;;;19.90;60.27;101793.88;4995095;28;20101;-64
2022/08/02 06:25:09;;;;;;;5.72;2.47;;;;;;;20.07;60.31;101793.78;4975127;28;20033;-64
2022/08/02 06:27:34;;;;;;;8.50;3.78;;;;;;;19.99;60.91;101789.81;4995641;28;20033;-62
2022/08/02 06:30:01;;;;;;;7.00;3.45;;;;;;;20.20;60.49;101783.19;4992434;28;20030;-62
2022/08/02 06:32:26;;;;;;;10.82;3.35;;;;;;;20.10;62.10;101783.84;4989986;28;20113;-62
2022/08/02 06:34:52;;;;;;;10.48;3.72;;;;;;;20.19;61.90;101786.84;4994469;28;20113;-62
2022/08/02 06:37:40;;;;;;;5.18;3.10;;;;;;;20.35;62.50;101787.72;4993132;28;20007;-65
2022/08/02 06:40:09;;;;;;;7.40;3.67;;;;;;;20.35;63.32;101788.59;4993573;28;20046;-65
2022/08/02 06:43:05;;;;;;;7.93;4.60;;;;;;;20.53;63.65;101794.63;4995672;28;20041;-61
2022/08/02 06:45:32;;;;;;;11.57;4.95;;;;;;;20.51;64.06;101795.66;4979744;28;20073;-61
2022/08/02 06:47:57;;;;;;;6.53;3.67;;;;;;;20.60;63.86;101789.75;5003871;28;20479;-62
2022/08/02 06:50:23;;;;;;;11.02;5.07;;;;;;;20.59;64.40;101785.38;5002248;28;20494;-62
2022/08/02 06:52:48;;;;;;;8.35;4.47;;;;;;;20.65;64.52;101797.50;5007167;28;20053;-65
2022/08/02 06:55:13;;;;;;;12.02;5.40;;;;;;;20.69;64.90;101789.19;5005634;28;20041;-64
2022/08/02 06:57:39;;;;;;;11.85;5.72;;;;;;;20.77;65.54;101787.84;4993756;28;20067;-63
2022/08/02 07:00:07;;;;;;;13.23;6.40;;;;;;;20.92;65.50;101780.72;4998825;28;20511;-65
2022/08/02 07:02:38;;;;;;;9.45;5.50;;;;;;;21.00;66.60;101785.56;4999001;28;20488;-65
2022/08/02 07:05:05;;;;;;;13.10;7.50;;;;;;;21.15;66.88;101787.28;4998631;28;20014;-65
2022/08/02 07:07:30;;;;;;;13.55;7.57;;;;;;;21.31;67.07;101789.81;4995773;28;20026;-64
2022/08/02 07:09:57;;;;;;;14.85;7.40;;;;;;;21.43;67.06;101780.09;4981394;28;20034;-62
2022/08/02 07:12:22;;;;;;;13.88;8.30;;;;;;;21.51;67.18;101776.94;5007898;28;20030;-62
2022/08/02 07:14:47;;;;;;;14.80;7.65;;;;;;;21.74;66.88;101773.69;5008096;28;20022;-62
2022/08/02 07:17:13;;;;;;;15.75;7.95;;;;;;;21.78;67.47;101770.72;5000377;28;20156;-63
2022/08/02 07:19:38;;;;;;;15.93;8.88;;;;;;;21.92;67.87;101763.56;4997422;28;20041;-63
2022/08/02 07:22:03;;;;;;;14.05;8.35;;;;;;;21.94;68.91;101767.00;5015701;28;20106;-62
2022/08/02 07:24:29;;;;;;;13.88;8.60;;;;;;;22.16;68.64;101758.34;4999513;28;20501;-61
2022/08/02 07:26:54;;;;;;;16.67;8.63;;;;;;;22.28;68.53;101759.34;4996108;28;20518;-61
2022/08/02 07:29:19;;;;;;;16.02;8.80;;;;;;;22.31;68.93;101756.41;4996606;28;20037;-63
2022/08/02 07:31:45;;;;;;;13.43;8.27;;;;;;;22.51;68.38;101756.00;4987219;28;20052;-62
2022/08/02 07:34:10;;;;;;;13.27;8.13;;;;;;;22.65;67.42;101758.59;4987719;28;20088;-62
2022/08/02 07:36:36;;;;;;;11.88;7.05;;;;;;;22.71;66.92;101757.28;4991700;28;20018;-62
2022/08/02 07:39:01;;;;;;;12.88;7.25;;;;;;;22.66;67.09;101749.56;4989033;28;20036;-65
2022/08/02 07:41:26;;;;;;;10.85;7.65;;;;;;;22.68;67.42;101749.44;5018318;28;20622;-64
2022/08/02 07:43:52;;;;;;;11.60;6.88;;;;;;;22.78;67.01;101755.03;5006756;28;20030;-64
2022/08/02 07:46:17;;;;;;;10.23;6.80;;;;;;;22.91;66.41;101747.78;5005264;28;20032;-64
2022/08/02 07:48:42;;;;;;;10.82;6.90;;;;;;;23.05;66.35;101748.59;5006366;28;20425;-65
2022/08/02 07:51:08;;;;;;;14.73;7.13;;;;;;;23.08;66.17;101754.63;4991225;28;20185;-65
2022/08/02 07:53:33;;;;;;;12.60;6.68;;;;;;;23.32;65.50;101755.59;4996129;28;20080;-65
2022/08/02 07:55:58;;;;;;;11.43;7.65;;;;;;;23.33;65.21;101751.97;4997659;28;20459;-65
2022/08/02 07:58:24;;;;;;;14.43;7.57;;;;;;;23.43;64.67;101747.66;4979989;28;20436;-66
2022/08/02 08:00:49;;;;;;;11.40;7.53;;;;;;;23.54;64.46;101743.31;5000748;28;20550;-64
2022/08/02 08:03:14;;;;;;;11.27;7.07;;;;;;;23.57;64.62;101735.84;5004617;28;20528;-65
2022/08/02 08:05:40;;;;;;;11.75;6.30;;;;;;;23.64;64.28;101741.63;5004989;28;20201;-65
2022/08/02 08:08:05;;;;;;;9.18;5.85;;;;;;;23.65;64.76;101742.47;5005898;28;20113;-64
2022/08/02 08:10:31;;;;;;;10.70;6.53;;;;;;;23.57;64.53;101745.75;5006539;28;20408;-60
2022/08/02 08:12:56;;;;;;;12.13;7.25;;;;;;;23.64;64.82;101747.00;5006978;28;20495;-63
2022/08/02 08:15:22;;;;;;;9.57;6.38;;;;;;;23.62;64.55;101751.63;5006276;28;20022;-63
2022/08/02 08:17:47;;;;;;;9.27;6.43;;;;;;;23.76;64.37;101744.34;4997679;28;20037;-63
2022/08/02 08:20:13;;;;;;;9.48;6.47;;;;;;;23.84;65.01;101755.41;4999747;28;20077;-60
2022/08/02 08:22:38;;;;;;;8.00;6.35;;;;;;;23.91;63.76;101739.63;5002189;28;20190;-62
2022/08/02 08:25:04;;;;;;;14.70;6.40;;;;;;;24.00;64.26;101738.06;5000683;28;20025;-62
2022/08/02 08:27:29;;;;;;;9.70;6.35;;;;;;;24.01;64.17;101734.38;4994355;28;20101;-63
2022/08/02 08:29:54;;;;;;;11.68;6.45;;;;;;;24.04;64.23;101736.84;4994925;28;20513;-62
2022/08/02 08:32:20;;;;;;;10.90;6.65;;;;;;;23.84;64.16;101729.34;4975878;28;20516;-61
2022/08/02 08:34:46;;;;;;;10.27;5.68;;;;;;;23.97;63.89;101731.94;4995704;28;20037;-61
2022/08/02 08:37:12;;;;;;;6.65;4.97;;;;;;;24.38;62.49;101730.69;4978018;28;20018;-61
2022/08/02 08:39:37;;;;;;;6.85;4.93;;;;;;;24.66;62.18;101739.25;4994889;28;20026;-62
2022/08/02 08:42:07;;;;;;;8.40;5.47;;;;;;;24.96;60.26;101737.78;4995237;28;20025;-62
2022/08/02 08:44:34;;;;;;;9.77;5.30;;;;;;;25.23;59.79;101742.72;4997223;28;20029;-62
2022/08/02 08:47:00;;;;;;;7.55;5.18;;;;;;;25.34;58.71;101738.28;4995188;28;20049;-62
2022/08/02 08:49:31;;;;;;;10.43;4.68;;;;;;;25.75;57.37;101741.22;4975617;28;20034;-61
2022/08/02 08:51:59;;;;;;;9.82;4.75;;;;;;;26.10;56.18;101737.31;4995336;28;20032;-61
2022/08/02 08:54:27;;;;;;;8.80;4.60;;;;;;;26.30;55.46;101742.88;4995462;28;20034;-60
2022/08/02 08:56:53;;;;;;;6.93;4.15;;;;;;;26.29;54.70;101734.88;4994714;28;20030;-61
2022/08/02 08:59:19;;;;;;;7.38;4.07;;;;;;;26.27;54.93;101732.28;4978661;28;20439;-61
2022/08/02 09:01:45;;;;;;;8.10;4.93;;;;;;;26.25;55.44;101740.53;4993826;28;20062;-63
2022/08/02 09:04:10;;;;;;;5.28;4.65;;;;;;;26.36;55.05;101736.06;4978181;28;20056;-62
2022/08/02 09:06:38;;;;;;;5.95;5.20;;;;;;;26.28;55.14;101730.47;5003843;28;20057;-62
2022/08/02 09:09:03;;;;;;;8.30;4.93;;;;;;;26.31;55.57;101733.75;5004610;28;20049;-62
2022/08/02 09:11:29;;;;;;;6.80;4.93;;;;;;;26.49;53.83;101739.41;5004852;28;20300;-63
2022/08/02 09:13:57;;;;;;;8.18;5.18;;;;;;;26.31;53.33;101738.34;5004237;28;20029;-64
2022/08/02 09:16:42;;;;;;;6.05;4.85;;;;;;;26.28;53.74;101752.06;5004119;28;20026;-65
2022/08/02 09:19:17;;;;;;;7.68;4.63;;;;;;;26.44;52.99;101749.78;5004006;28;20051;-64
2022/08/02 09:21:44;;;;;;;6.53;4.35;;;;;;;26.56;53.63;101755.06;5002536;28;20044;-64
2022/08/02 09:24:20;;;;;;;8.93;4.38;;;;;;;26.41;53.31;101751.88;5001976;28;20125;-62
2022/08/02 09:26:47;;;;;;;5.72;4.43;;;;;;;26.72;52.35;101741.91;5002068;28;20073;-61
2022/08/02 09:29:12;;;;;;;6.90;5.03;;;;;;;26.65;50.20;101750.69;5003224;28;20061;-61
2022/08/02 09:31:38;;;;;;;6.82;4.78;;;;;;;26.80;50.68;101752.03;4985668;28;20058;-62
2022/08/02 09:34:03;;;;;;;5.45;4.40;;;;;;;26.94;49.55;101749.94;5004015;28;20022;-63
2022/08/02 09:36:42;;;;;;;5.28;3.70;;;;;;;27.14;49.18;101752.72;4985233;28;20037;-64
2022/08/02 09:39:08;;;;;;;;;;;;;;;27.28;49.43;101759.56;5002403;28;20047;-65
2022/08/02 09:41:36;;;;;;;10.27;4.03;;;;;;;27.04;49.81;101760.81;5004069;28;19913;-63
2022/08/02 09:44:04;;;;;;;6.05;3.70;;;;;;;27.12;49.32;101763.69;5004113;28;20026;-64
2022/08/02 09:46:32;;;;;;;9.40;4.30;;;;;;;26.87;50.14;101755.91;5004034;28;20033;-63
2022/08/02 09:49:08;;;;;;;6.75;3.90;;;;;;;26.98;49.34;101751.41;5004582;28;20033;-65
2022/08/02 09:51:39;;;;;;;6.03;4.00;;;;;;;27.02;49.45;101754.69;5002318;28;20703;-64
2022/08/02 09:54:07;;;;;;;5.65;3.17;;;;;;;26.80;48.60;101756.59;4986580;28;20095;-65
2022/08/02 09:56:50;;;;;;;5.93;3.17;;;;;;;26.87;50.02;101757.75;5003955;28;20049;-62
2022/08/02 09:59:17;;;;;;;8.10;3.47;;;;;;;26.83;49.53;101781.50;5003344;28;20030;-64
2022/08/02 10:01:45;;;;;;;5.05;3.78;;;;;;;26.68;48.10;101770.22;5003260;28;20021;-61
2022/08/02 10:04:12;;;;;;;7.30;3.90;;;;;;;26.52;49.40;101786.06;5003668;28;20029;-63
2022/08/02 10:06:39;;;;;;;4.97;3.97;;;;;;;26.43;49.43;101776.91;5003413;28;20076;-61
2022/08/02 10:09:08;;;;;;;6.35;4.40;;;;;;;26.37;49.36;101767.50;5004247;28;20078;-61
2022/08/02 10:11:34;;;;;;;6.45;4.07;;;;;;;26.36;50.99;101771.19;5004612;28;20393;-63
2022/08/02 10:14:05;;;;;;;9.32;3.42;;;;;;;26.66;48.34;101780.28;5000705;28;20117;-61
2022/08/02 10:16:33;;;;;;;5.32;3.90;;;;;;;26.58;48.20;101769.31;5000049;28;20014;-61
2022/08/02 10:19:00;;;;;;;5.32;3.78;;;;;;;26.64;48.64;101768.78;4994541;28;20022;-62
2022/08/02 10:21:35;;;;;;;5.60;3.17;;;;;;;26.86;48.70;101762.31;4992242;28;20369;-62
2022/08/02 10:24:05;;;;;;;6.13;4.00;;;;;;;26.95;47.63;101757.06;4984728;28;20066;-62
2022/08/02 10:26:31;;;;;;;6.22;3.30;;;;;;;27.17;47.83;101752.41;4992251;28;20026;-61
2022/08/02 10:28:56;;;;;;;4.80;2.88;;;;;;;27.31;46.59;101753.88;4976130;28;20021;-61
2022/08/02 10:31:29;;;;;;;5.20;3.30;;;;;;;27.20;46.16;101754.84;4993885;28;20022;-62
2022/08/02 10:33:57;;;;;;;6.50;3.00;;;;;;;27.29;46.53;101761.25;4974506;28;20134;-61
2022/08/02 10:36:25;;;;;;;8.23;3.53;;;;;;;27.48;47.14;101750.47;4991483;28;20054;-62
2022/08/02 10:38:53;;;;;;;4.78;3.08;;;;;;;27.72;45.81;101741.09;4988195;28;20109;-61
2022/08/02 10:41:43;;;;;;;6.45;2.88;;;;;;;27.62;46.49;101735.66;4976872;28;20282;-60
2022/08/02 10:44:19;;;;;;;4.80;2.60;;;;;;;27.83;46.22;101750.03;4995032;28;20185;-62
2022/08/02 10:46:45;;;;;;;3.13;2.30;;;;;;;28.07;45.26;101737.88;4985760;28;20592;-62
2022/08/02 10:49:19;;;;;;;4.18;2.00;;;;;;;28.18;43.68;101747.69;4985141;28;20191;-61
2022/08/02 10:51:53;;;;;;;9.07;3.05;;;;;;;28.24;43.60;101733.56;4996574;28;20034;-62
2022/08/02 10:54:24;;;;;;;8.77;2.60;;;;;;;28.43;44.06;101739.94;5002155;28;20022;-62
2022/08/02 10:56:51;;;;;;;4.43;2.60;;;;;;;27.95;44.61;101751.59;5002575;28;20052;-62
2022/08/02 10:59:25;;;;;;;4.78;2.20;;;;;;;27.91;43.93;101750.19;4984606;28;20441;-61
2022/08/02 11:02:00;;;;;;;9.50;2.80;;;;;;;28.12;43.85;101743.72;5003376;28;20041;-62
2022/08/02 11:04:27;;;;;;;6.57;2.67;;;;;;;28.28;43.68;101744.94;5000668;28;20049;-62
2022/08/02 11:07:17;;;;;;;4.95;3.08;;;;;;;28.61;43.96;101735.44;4985412;28;20038;-63
2022/08/02 11:09:44;;;;;;;6.25;3.45;;;;;;;28.79;43.58;101745.47;4999953;28;20492;-61
2022/08/02 11:12:12;;;;;;;9.80;3.13;;;;;;;29.24;41.72;101735.66;4985085;28;20030;-61
2022/08/02 11:14:39;;;;;;;7.07;2.83;;;;;;;29.42;41.77;101728.50;5003959;28;20013;-64
2022/08/02 11:17:12;;;;;;;7.13;2.92;;;;;;;29.36;41.31;101716.41;4999305;28;20090;-61
2022/08/02 11:20:11;;;;;;;5.28;2.63;;;;;;;29.70;40.78;101740.16;4997720;28;20030;-64
2022/08/02 11:22:38;;;;;;;7.35;3.28;;;;;;;29.39;41.11;101725.13;5004413;28;20057;-64
2022/08/02 11:25:21;;;;;;;3.55;2.45;;;;;;;29.60;40.19;101728.53;5003784;28;20116;-65
2022/08/02 11:27:55;;;;;;;17.98;2.55;;;;;;;29.75;40.06;101740.53;5004111;28;20109;-65